首页
METAR-TAF:

METAR-TAF

机场 :

洛杉磯國際機場

洛杉矶, 加利福尼亚州, 美国

纬度: 33-56-17N, 经度: 118-23-20W, 海拔: 38米

当前天气观测

该预报发布于28分钟前的00:53 UTC
风速12节,风向西
温度 16°C
湿度 68%
气压 1020 hPa
能見度: 16.1公里
少量云层高于2400英尺
散云层高于12000英尺

METAR: KLAX 230053Z 26012KT 10SM FEW024 SCT120 16/10 A3013 RMK AO2 SLP202 T01560100

时间: 18:21 (01:21 UTC)

预报

该预报发布于1小时和46分钟前的23:35 UTC
预报有效从23日的 00点(UTC)到 24日的 06点(UTC)
风速15节,风向西转西南
能見度: 10公里
少量云层高于3000英尺
散云层高于15000英尺
从 23日的 0400点(UTC)
风速9节,风向西
能見度: 10公里
天空无云
从 23日的 0900点(UTC)
风速3节,风向多变
能見度: 10公里
多云层高于1500英尺
从 23日的 1400点(UTC)
风速3节,风向多变
能見度: 10公里
阴天层高于2500英尺
从 23日的 1900点(UTC)
风速8节,风向西转西南
能見度: 10公里
多云层高于2500英尺
从 23日的 2200点(UTC)
风速15节,风向西
能見度: 10公里
多云层高于5000英尺
从 24日的 0300点(UTC)
风速9节,风向西
能見度: 10公里
多云层高于5000英尺

TAF: KLAX 222335Z 2300/2406 25015KT P6SM FEW030 SCT150 FM230400 26009KT P6SM SKC FM230900 VRB03KT P6SM BKN015 FM231400 VRB03KT P6SM OVC025 FM231900 25008KT P6SM BKN025 FM232200 26015KT P6SM BKN050 FM240300 28009KT P6SM BKN050

超过4000个机场的气象观测和天气预报(METAR&TAF报告)。

可查询的气象台以黄色和红色小点在地图上表示。

将鼠标移到小点上方,可查看气象台名称。

然后点击查看天气观测和预报。

如需切换地图:点击带黑十字的绿色按钮放大地图;点击带横线的绿色按钮缩小地图;或者点击绿色箭头查看邻近地区的地图。


METAR-TAF: